sensor_id;sensor_type;location;lat;lon;timestamp;P1;durP1;ratioP1;P2;durP2;ratioP2
78716;SDS011;68045;50.042;14.432;2023-07-31T00:07:47;6.18;;;2.47;;
78716;SDS011;68045;50.042;14.432;2023-07-31T00:11:48;5.82;;;3.25;;
78716;SDS011;68045;50.042;14.432;2023-07-31T00:15:49;6.65;;;3.05;;
78716;SDS011;68045;50.042;14.432;2023-07-31T00:19:50;6.10;;;2.58;;
78716;SDS011;68045;50.042;14.432;2023-07-31T00:23:51;8.63;;;2.80;;
78716;SDS011;68045;50.042;14.432;2023-07-31T00:27:52;5.82;;;2.85;;
78716;SDS011;68045;50.042;14.432;2023-07-31T00:31:53;6.25;;;2.78;;
78716;SDS011;68045;50.042;14.432;2023-07-31T00:35:54;5.18;;;2.70;;
78716;SDS011;68045;50.042;14.432;2023-07-31T00:39:55;7.40;;;2.42;;
78716;SDS011;68045;50.042;14.432;2023-07-31T00:43:55;4.38;;;2.60;;
78716;SDS011;68045;50.042;14.432;2023-07-31T00:47:57;7.20;;;2.85;;
78716;SDS011;68045;50.042;14.432;2023-07-31T00:51:58;6.72;;;2.78;;
78716;SDS011;68045;50.042;14.432;2023-07-31T00:55:59;7.20;;;2.75;;
78716;SDS011;68045;50.042;14.432;2023-07-31T01:00:00;7.18;;;2.88;;
78716;SDS011;68045;50.042;14.432;2023-07-31T01:04:02;5.68;;;2.78;;
78716;SDS011;68045;50.042;14.432;2023-07-31T01:08:09;5.00;;;2.55;;
78716;SDS011;68045;50.042;14.432;2023-07-31T01:12:41;5.97;;;2.42;;
78716;SDS011;68045;50.042;14.432;2023-07-31T01:16:42;5.15;;;2.55;;
78716;SDS011;68045;50.042;14.432;2023-07-31T01:20:43;6.68;;;3.15;;
78716;SDS011;68045;50.042;14.432;2023-07-31T01:33:54;7.97;;;2.78;;
78716;SDS011;68045;50.042;14.432;2023-07-31T01:37:58;8.43;;;3.03;;
78716;SDS011;68045;50.042;14.432;2023-07-31T01:41:59;3.58;;;2.60;;
78716;SDS011;68045;50.042;14.432;2023-07-31T01:46:00;5.38;;;3.17;;
78716;SDS011;68045;50.042;14.432;2023-07-31T01:50:02;3.95;;;2.50;;
78716;SDS011;68045;50.042;14.432;2023-07-31T01:54:03;3.95;;;2.75;;
78716;SDS011;68045;50.042;14.432;2023-07-31T01:58:04;12.32;;;2.83;;
78716;SDS011;68045;50.042;14.432;2023-07-31T02:02:05;7.57;;;3.13;;
78716;SDS011;68045;50.042;14.432;2023-07-31T02:06:06;6.28;;;2.40;;
78716;SDS011;68045;50.042;14.432;2023-07-31T02:10:07;4.63;;;2.75;;
78716;SDS011;68045;50.042;14.432;2023-07-31T02:14:10;3.42;;;2.25;;
78716;SDS011;68045;50.042;14.432;2023-07-31T02:18:11;6.90;;;2.78;;
78716;SDS011;68045;50.042;14.432;2023-07-31T02:22:12;7.65;;;2.50;;
78716;SDS011;68045;50.042;14.432;2023-07-31T02:26:12;6.25;;;2.80;;
78716;SDS011;68045;50.042;14.432;2023-07-31T02:30:14;5.82;;;2.55;;
78716;SDS011;68045;50.042;14.432;2023-07-31T02:34:14;4.47;;;2.67;;
78716;SDS011;68045;50.042;14.432;2023-07-31T02:38:16;3.67;;;2.45;;
78716;SDS011;68045;50.042;14.432;2023-07-31T02:42:17;5.90;;;2.80;;
78716;SDS011;68045;50.042;14.432;2023-07-31T02:46:18;7.30;;;3.10;;
78716;SDS011;68045;50.042;14.432;2023-07-31T02:50:20;4.70;;;2.78;;
78716;SDS011;68045;50.042;14.432;2023-07-31T02:54:21;6.80;;;3.00;;
78716;SDS011;68045;50.042;14.432;2023-07-31T02:58:22;4.63;;;2.53;;
78716;SDS011;68045;50.042;14.432;2023-07-31T03:02:23;5.57;;;2.78;;
78716;SDS011;68045;50.042;14.432;2023-07-31T03:06:24;5.28;;;2.92;;
78716;SDS011;68045;50.042;14.432;2023-07-31T03:10:27;6.28;;;3.22;;
78716;SDS011;68045;50.042;14.432;2023-07-31T03:14:28;4.80;;;2.83;;
78716;SDS011;68045;50.042;14.432;2023-07-31T03:18:29;6.72;;;2.80;;
78716;SDS011;68045;50.042;14.432;2023-07-31T03:22:30;6.00;;;2.38;;
78716;SDS011;68045;50.042;14.432;2023-07-31T03:26:31;3.60;;;2.28;;
78716;SDS011;68045;50.042;14.432;2023-07-31T03:30:35;4.00;;;2.53;;
78716;SDS011;68045;50.042;14.432;2023-07-31T03:34:37;5.28;;;3.05;;
78716;SDS011;68045;50.042;14.432;2023-07-31T03:38:40;5.85;;;2.42;;
78716;SDS011;68045;50.042;14.432;2023-07-31T03:42:41;5.55;;;2.63;;
78716;SDS011;68045;50.042;14.432;2023-07-31T03:46:42;6.05;;;2.85;;
78716;SDS011;68045;50.042;14.432;2023-07-31T03:50:43;6.18;;;2.72;;
78716;SDS011;68045;50.042;14.432;2023-07-31T03:54:44;4.70;;;2.40;;
78716;SDS011;68045;50.042;14.432;2023-07-31T03:58:45;6.05;;;3.00;;
78716;SDS011;68045;50.042;14.432;2023-07-31T04:02:46;10.52;;;2.65;;
78716;SDS011;68045;50.042;14.432;2023-07-31T04:06:47;5.55;;;2.50;;
78716;SDS011;68045;50.042;14.432;2023-07-31T04:10:48;8.35;;;2.40;;
78716;SDS011;68045;50.042;14.432;2023-07-31T04:14:49;4.63;;;2.75;;
78716;SDS011;68045;50.042;14.432;2023-07-31T04:18:50;5.57;;;2.67;;
78716;SDS011;68045;50.042;14.432;2023-07-31T04:22:51;6.38;;;2.60;;
78716;SDS011;68045;50.042;14.432;2023-07-31T04:26:52;7.70;;;2.60;;
78716;SDS011;68045;50.042;14.432;2023-07-31T04:30:54;9.25;;;2.85;;
78716;SDS011;68045;50.042;14.432;2023-07-31T04:34:55;3.83;;;2.00;;
78716;SDS011;68045;50.042;14.432;2023-07-31T04:38:56;4.68;;;2.60;;
78716;SDS011;68045;50.042;14.432;2023-07-31T04:42:57;6.15;;;2.30;;
78716;SDS011;68045;50.042;14.432;2023-07-31T04:46:58;4.72;;;2.53;;
78716;SDS011;68045;50.042;14.432;2023-07-31T04:50:59;4.20;;;2.22;;
78716;SDS011;68045;50.042;14.432;2023-07-31T04:55:00;4.45;;;2.55;;
78716;SDS011;68045;50.042;14.432;2023-07-31T04:59:01;3.80;;;2.40;;
78716;SDS011;68045;50.042;14.432;2023-07-31T05:03:02;6.13;;;2.80;;
78716;SDS011;68045;50.042;14.432;2023-07-31T05:07:03;6.95;;;2.50;;
78716;SDS011;68045;50.042;14.432;2023-07-31T05:11:04;5.85;;;2.55;;
78716;SDS011;68045;50.042;14.432;2023-07-31T05:15:05;5.13;;;2.70;;
78716;SDS011;68045;50.042;14.432;2023-07-31T05:19:06;6.25;;;2.55;;
78716;SDS011;68045;50.042;14.432;2023-07-31T05:23:08;5.95;;;2.33;;
78716;SDS011;68045;50.042;14.432;2023-07-31T05:27:09;4.53;;;2.60;;
78716;SDS011;68045;50.042;14.432;2023-07-31T05:31:10;5.88;;;3.00;;
78716;SDS011;68045;50.042;14.432;2023-07-31T05:35:11;5.60;;;2.50;;
78716;SDS011;68045;50.042;14.432;2023-07-31T05:39:12;7.00;;;2.40;;
78716;SDS011;68045;50.042;14.432;2023-07-31T05:43:13;5.97;;;2.88;;
78716;SDS011;68045;50.042;14.432;2023-07-31T05:47:15;6.25;;;2.40;;
78716;SDS011;68045;50.042;14.432;2023-07-31T05:51:16;5.78;;;2.42;;
78716;SDS011;68045;50.042;14.432;2023-07-31T05:55:17;6.57;;;2.58;;
78716;SDS011;68045;50.042;14.432;2023-07-31T05:59:18;7.90;;;2.45;;
78716;SDS011;68045;50.042;14.432;2023-07-31T06:03:19;7.15;;;2.70;;
78716;SDS011;68045;50.042;14.432;2023-07-31T06:07:20;6.95;;;2.40;;
78716;SDS011;68045;50.042;14.432;2023-07-31T06:11:20;6.00;;;2.50;;
78716;SDS011;68045;50.042;14.432;2023-07-31T06:15:21;3.80;;;2.35;;
78716;SDS011;68045;50.042;14.432;2023-07-31T06:19:22;8.30;;;2.30;;
78716;SDS011;68045;50.042;14.432;2023-07-31T06:23:25;5.78;;;2.50;;
78716;SDS011;68045;50.042;14.432;2023-07-31T06:27:26;3.95;;;2.13;;
78716;SDS011;68045;50.042;14.432;2023-07-31T06:31:27;5.50;;;2.80;;
78716;SDS011;68045;50.042;14.432;2023-07-31T06:35:28;3.92;;;2.58;;
78716;SDS011;68045;50.042;14.432;2023-07-31T06:39:29;9.00;;;2.67;;
78716;SDS011;68045;50.042;14.432;2023-07-31T06:43:30;5.35;;;2.22;;
78716;SDS011;68045;50.042;14.432;2023-07-31T06:47:31;5.55;;;1.88;;
78716;SDS011;68045;50.042;14.432;2023-07-31T06:51:32;7.00;;;3.05;;
78716;SDS011;68045;50.042;14.432;2023-07-31T06:55:33;5.90;;;2.33;;
78716;SDS011;68045;50.042;14.432;2023-07-31T06:59:34;7.85;;;2.35;;
78716;SDS011;68045;50.042;14.432;2023-07-31T07:03:35;7.22;;;2.50;;
78716;SDS011;68045;50.042;14.432;2023-07-31T07:07:36;6.43;;;2.10;;
78716;SDS011;68045;50.042;14.432;2023-07-31T07:11:37;6.00;;;2.05;;
78716;SDS011;68045;50.042;14.432;2023-07-31T07:15:38;6.18;;;2.25;;
78716;SDS011;68045;50.042;14.432;2023-07-31T07:19:42;6.07;;;2.42;;
78716;SDS011;68045;50.042;14.432;2023-07-31T07:23:43;4.45;;;2.28;;
78716;SDS011;68045;50.042;14.432;2023-07-31T07:27:45;4.80;;;2.08;;
78716;SDS011;68045;50.042;14.432;2023-07-31T07:31:46;7.95;;;2.80;;
78716;SDS011;68045;50.042;14.432;2023-07-31T07:35:47;4.95;;;2.22;;
78716;SDS011;68045;50.042;14.432;2023-07-31T07:39:48;3.53;;;2.10;;
78716;SDS011;68045;50.042;14.432;2023-07-31T07:43:49;3.60;;;2.30;;
78716;SDS011;68045;50.042;14.432;2023-07-31T07:47:49;5.43;;;2.33;;
78716;SDS011;68045;50.042;14.432;2023-07-31T07:51:50;9.07;;;2.90;;
78716;SDS011;68045;50.042;14.432;2023-07-31T07:55:51;7.05;;;2.25;;
78716;SDS011;68045;50.042;14.432;2023-07-31T07:59:52;4.22;;;2.05;;
78716;SDS011;68045;50.042;14.432;2023-07-31T08:03:53;6.95;;;2.00;;
78716;SDS011;68045;50.042;14.432;2023-07-31T08:07:54;5.47;;;2.33;;
78716;SDS011;68045;50.042;14.432;2023-07-31T08:11:55;5.63;;;2.42;;
78716;SDS011;68045;50.042;14.432;2023-07-31T08:15:58;6.30;;;2.33;;
78716;SDS011;68045;50.042;14.432;2023-07-31T08:19:59;5.10;;;2.47;;
78716;SDS011;68045;50.042;14.432;2023-07-31T08:24:00;6.80;;;2.25;;
78716;SDS011;68045;50.042;14.432;2023-07-31T08:28:01;5.85;;;2.63;;
78716;SDS011;68045;50.042;14.432;2023-07-31T08:32:02;4.05;;;1.92;;
78716;SDS011;68045;50.042;14.432;2023-07-31T08:36:04;5.38;;;2.50;;
78716;SDS011;68045;50.042;14.432;2023-07-31T08:40:05;7.47;;;2.30;;
78716;SDS011;68045;50.042;14.432;2023-07-31T08:44:07;4.88;;;2.08;;
78716;SDS011;68045;50.042;14.432;2023-07-31T08:48:08;5.63;;;2.55;;
78716;SDS011;68045;50.042;14.432;2023-07-31T08:52:11;5.43;;;2.08;;
78716;SDS011;68045;50.042;14.432;2023-07-31T08:56:12;3.83;;;2.10;;
78716;SDS011;68045;50.042;14.432;2023-07-31T09:00:15;5.15;;;2.33;;
78716;SDS011;68045;50.042;14.432;2023-07-31T09:04:16;3.95;;;2.35;;
78716;SDS011;68045;50.042;14.432;2023-07-31T09:08:21;6.70;;;2.83;;
78716;SDS011;68045;50.042;14.432;2023-07-31T09:12:22;6.45;;;2.28;;
78716;SDS011;68045;50.042;14.432;2023-07-31T09:16:29;5.93;;;2.45;;
78716;SDS011;68045;50.042;14.432;2023-07-31T09:20:32;8.63;;;2.42;;
78716;SDS011;68045;50.042;14.432;2023-07-31T09:24:34;5.95;;;2.80;;
78716;SDS011;68045;50.042;14.432;2023-07-31T09:28:35;5.45;;;2.40;;
78716;SDS011;68045;50.042;14.432;2023-07-31T09:32:37;6.82;;;2.92;;
78716;SDS011;68045;50.042;14.432;2023-07-31T09:40:46;6.35;;;2.45;;
78716;SDS011;68045;50.042;14.432;2023-07-31T09:44:48;5.35;;;2.25;;
78716;SDS011;68045;50.042;14.432;2023-07-31T09:48:49;7.95;;;2.20;;
78716;SDS011;68045;50.042;14.432;2023-07-31T09:52:50;5.03;;;2.13;;
78716;SDS011;68045;50.042;14.432;2023-07-31T09:56:52;7.18;;;2.25;;
78716;SDS011;68045;50.042;14.432;2023-07-31T10:00:55;4.57;;;2.20;;
78716;SDS011;68045;50.042;14.432;2023-07-31T10:04:58;4.75;;;2.60;;
78716;SDS011;68045;50.042;14.432;2023-07-31T10:09:02;5.63;;;2.58;;
78716;SDS011;68045;50.042;14.432;2023-07-31T10:13:16;7.03;;;2.85;;
78716;SDS011;68045;50.042;14.432;2023-07-31T10:17:18;5.50;;;2.60;;
78716;SDS011;68045;50.042;14.432;2023-07-31T10:21:21;4.45;;;2.50;;
78716;SDS011;68045;50.042;14.432;2023-07-31T10:25:22;6.03;;;2.70;;
78716;SDS011;68045;50.042;14.432;2023-07-31T10:29:24;5.82;;;2.60;;
78716;SDS011;68045;50.042;14.432;2023-07-31T10:37:28;5.68;;;2.90;;
78716;SDS011;68045;50.042;14.432;2023-07-31T10:41:36;8.30;;;3.00;;
78716;SDS011;68045;50.042;14.432;2023-07-31T10:45:38;4.18;;;2.90;;
78716;SDS011;68045;50.042;14.432;2023-07-31T10:49:46;4.28;;;2.47;;
78716;SDS011;68045;50.042;14.432;2023-07-31T10:53:50;5.57;;;3.08;;
78716;SDS011;68045;50.042;14.432;2023-07-31T10:58:12;6.57;;;2.85;;
78716;SDS011;68045;50.042;14.432;2023-07-31T11:02:25;8.65;;;2.80;;
78716;SDS011;68045;50.042;14.432;2023-07-31T11:06:29;5.72;;;3.05;;
78716;SDS011;68045;50.042;14.432;2023-07-31T11:10:30;6.18;;;2.83;;
78716;SDS011;68045;50.042;14.432;2023-07-31T11:14:30;4.30;;;2.47;;
78716;SDS011;68045;50.042;14.432;2023-07-31T11:18:31;4.32;;;2.40;;
78716;SDS011;68045;50.042;14.432;2023-07-31T11:22:32;3.50;;;2.20;;
78716;SDS011;68045;50.042;14.432;2023-07-31T11:26:33;7.30;;;2.70;;
78716;SDS011;68045;50.042;14.432;2023-07-31T11:30:34;6.38;;;2.70;;
78716;SDS011;68045;50.042;14.432;2023-07-31T11:34:50;3.45;;;2.10;;
78716;SDS011;68045;50.042;14.432;2023-07-31T11:38:52;6.63;;;2.70;;
78716;SDS011;68045;50.042;14.432;2023-07-31T11:42:53;5.93;;;2.30;;
78716;SDS011;68045;50.042;14.432;2023-07-31T11:46:57;5.05;;;2.40;;
78716;SDS011;68045;50.042;14.432;2023-07-31T11:51:00;4.28;;;2.30;;
78716;SDS011;68045;50.042;14.432;2023-07-31T11:55:03;6.63;;;2.80;;
78716;SDS011;68045;50.042;14.432;2023-07-31T11:59:05;7.97;;;2.60;;
78716;SDS011;68045;50.042;14.432;2023-07-31T12:03:08;4.72;;;2.38;;
78716;SDS011;68045;50.042;14.432;2023-07-31T12:07:10;6.07;;;2.20;;
78716;SDS011;68045;50.042;14.432;2023-07-31T12:11:13;8.25;;;2.28;;
78716;SDS011;68045;50.042;14.432;2023-07-31T12:15:15;4.18;;;2.30;;
78716;SDS011;68045;50.042;14.432;2023-07-31T12:19:18;4.28;;;2.10;;
78716;SDS011;68045;50.042;14.432;2023-07-31T12:23:20;4.88;;;2.20;;
78716;SDS011;68045;50.042;14.432;2023-07-31T12:27:32;5.70;;;2.25;;
78716;SDS011;68045;50.042;14.432;2023-07-31T12:31:34;4.88;;;2.42;;
78716;SDS011;68045;50.042;14.432;2023-07-31T12:35:36;3.60;;;2.17;;
78716;SDS011;68045;50.042;14.432;2023-07-31T12:39:38;8.07;;;2.45;;
78716;SDS011;68045;50.042;14.432;2023-07-31T12:43:40;3.58;;;1.90;;
78716;SDS011;68045;50.042;14.432;2023-07-31T12:47:42;3.42;;;1.88;;
78716;SDS011;68045;50.042;14.432;2023-07-31T12:51:43;5.07;;;2.28;;
78716;SDS011;68045;50.042;14.432;2023-07-31T12:55:44;5.90;;;2.30;;
78716;SDS011;68045;50.042;14.432;2023-07-31T12:59:45;5.60;;;2.10;;
78716;SDS011;68045;50.042;14.432;2023-07-31T13:03:46;6.13;;;2.20;;
78716;SDS011;68045;50.042;14.432;2023-07-31T13:07:47;7.05;;;2.70;;
78716;SDS011;68045;50.042;14.432;2023-07-31T13:11:48;6.95;;;2.25;;
78716;SDS011;68045;50.042;14.432;2023-07-31T13:15:49;4.65;;;2.08;;
78716;SDS011;68045;50.042;14.432;2023-07-31T13:19:50;3.70;;;2.15;;
78716;SDS011;68045;50.042;14.432;2023-07-31T13:23:51;4.82;;;2.50;;
78716;SDS011;68045;50.042;14.432;2023-07-31T13:27:52;3.63;;;1.98;;
78716;SDS011;68045;50.042;14.432;2023-07-31T13:31:53;3.63;;;1.80;;
78716;SDS011;68045;50.042;14.432;2023-07-31T13:35:54;5.35;;;2.80;;
78716;SDS011;68045;50.042;14.432;2023-07-31T13:39:54;5.47;;;2.40;;
78716;SDS011;68045;50.042;14.432;2023-07-31T13:43:55;6.15;;;2.15;;
78716;SDS011;68045;50.042;14.432;2023-07-31T13:47:56;4.35;;;2.42;;
78716;SDS011;68045;50.042;14.432;2023-07-31T13:51:57;4.57;;;2.30;;
78716;SDS011;68045;50.042;14.432;2023-07-31T13:55:58;4.28;;;2.30;;
78716;SDS011;68045;50.042;14.432;2023-07-31T14:00:00;4.72;;;2.25;;
78716;SDS011;68045;50.042;14.432;2023-07-31T14:04:00;6.35;;;2.80;;
78716;SDS011;68045;50.042;14.432;2023-07-31T14:08:02;3.88;;;2.20;;
78716;SDS011;68045;50.042;14.432;2023-07-31T14:12:03;5.22;;;2.38;;
78716;SDS011;68045;50.042;14.432;2023-07-31T14:16:05;3.20;;;2.10;;
78716;SDS011;68045;50.042;14.432;2023-07-31T14:20:06;5.05;;;2.20;;
78716;SDS011;68045;50.042;14.432;2023-07-31T14:24:07;5.68;;;2.53;;
78716;SDS011;68045;50.042;14.432;2023-07-31T14:28:08;8.00;;;2.55;;
78716;SDS011;68045;50.042;14.432;2023-07-31T14:32:09;3.72;;;2.03;;
78716;SDS011;68045;50.042;14.432;2023-07-31T14:36:10;4.05;;;2.42;;
78716;SDS011;68045;50.042;14.432;2023-07-31T14:40:11;6.55;;;2.45;;
78716;SDS011;68045;50.042;14.432;2023-07-31T14:44:13;5.32;;;2.78;;
78716;SDS011;68045;50.042;14.432;2023-07-31T14:48:14;5.93;;;2.88;;
78716;SDS011;68045;50.042;14.432;2023-07-31T14:52:15;5.30;;;2.75;;
78716;SDS011;68045;50.042;14.432;2023-07-31T14:56:16;3.33;;;1.85;;
78716;SDS011;68045;50.042;14.432;2023-07-31T15:00:17;8.10;;;2.60;;
78716;SDS011;68045;50.042;14.432;2023-07-31T15:04:19;4.60;;;2.20;;
78716;SDS011;68045;50.042;14.432;2023-07-31T15:08:20;6.30;;;2.50;;
78716;SDS011;68045;50.042;14.432;2023-07-31T15:12:20;5.03;;;2.75;;
78716;SDS011;68045;50.042;14.432;2023-07-31T15:16:23;6.25;;;2.50;;
78716;SDS011;68045;50.042;14.432;2023-07-31T15:20:24;4.57;;;2.22;;
78716;SDS011;68045;50.042;14.432;2023-07-31T15:24:25;4.93;;;2.75;;
78716;SDS011;68045;50.042;14.432;2023-07-31T15:28:26;6.68;;;2.42;;
78716;SDS011;68045;50.042;14.432;2023-07-31T15:32:27;6.60;;;2.85;;
78716;SDS011;68045;50.042;14.432;2023-07-31T15:36:28;4.57;;;2.10;;
78716;SDS011;68045;50.042;14.432;2023-07-31T15:40:29;5.97;;;2.42;;
78716;SDS011;68045;50.042;14.432;2023-07-31T15:44:30;8.68;;;2.63;;
78716;SDS011;68045;50.042;14.432;2023-07-31T15:48:31;4.35;;;2.42;;
78716;SDS011;68045;50.042;14.432;2023-07-31T15:52:32;6.60;;;2.60;;
78716;SDS011;68045;50.042;14.432;2023-07-31T15:56:33;5.65;;;2.55;;
78716;SDS011;68045;50.042;14.432;2023-07-31T16:00:34;4.50;;;2.30;;
78716;SDS011;68045;50.042;14.432;2023-07-31T16:04:35;4.72;;;2.42;;
78716;SDS011;68045;50.042;14.432;2023-07-31T16:08:36;4.18;;;2.00;;
78716;SDS011;68045;50.042;14.432;2023-07-31T16:12:42;6.57;;;2.67;;
78716;SDS011;68045;50.042;14.432;2023-07-31T16:16:43;3.75;;;2.40;;
78716;SDS011;68045;50.042;14.432;2023-07-31T16:20:44;5.53;;;2.60;;
78716;SDS011;68045;50.042;14.432;2023-07-31T16:24:45;4.07;;;2.70;;
78716;SDS011;68045;50.042;14.432;2023-07-31T16:28:46;7.20;;;2.60;;
78716;SDS011;68045;50.042;14.432;2023-07-31T16:32:47;8.35;;;2.63;;
78716;SDS011;68045;50.042;14.432;2023-07-31T16:36:50;5.05;;;2.40;;
78716;SDS011;68045;50.042;14.432;2023-07-31T16:40:51;5.25;;;2.60;;
78716;SDS011;68045;50.042;14.432;2023-07-31T16:44:52;3.67;;;2.28;;
78716;SDS011;68045;50.042;14.432;2023-07-31T16:48:54;5.50;;;2.42;;
78716;SDS011;68045;50.042;14.432;2023-07-31T16:52:55;8.27;;;2.60;;
78716;SDS011;68045;50.042;14.432;2023-07-31T16:56:56;5.03;;;2.53;;
78716;SDS011;68045;50.042;14.432;2023-07-31T17:00:56;5.70;;;2.50;;
78716;SDS011;68045;50.042;14.432;2023-07-31T17:05:01;5.95;;;2.92;;
78716;SDS011;68045;50.042;14.432;2023-07-31T17:09:02;5.30;;;2.65;;
78716;SDS011;68045;50.042;14.432;2023-07-31T17:13:03;3.75;;;2.28;;
78716;SDS011;68045;50.042;14.432;2023-07-31T17:17:05;4.82;;;2.78;;
78716;SDS011;68045;50.042;14.432;2023-07-31T17:25:08;4.70;;;2.97;;
78716;SDS011;68045;50.042;14.432;2023-07-31T17:29:11;5.15;;;2.70;;
78716;SDS011;68045;50.042;14.432;2023-07-31T17:33:16;6.50;;;2.88;;
78716;SDS011;68045;50.042;14.432;2023-07-31T17:37:17;3.63;;;2.45;;
78716;SDS011;68045;50.042;14.432;2023-07-31T17:41:18;6.05;;;2.63;;
78716;SDS011;68045;50.042;14.432;2023-07-31T17:45:19;5.38;;;3.05;;
78716;SDS011;68045;50.042;14.432;2023-07-31T17:49:21;5.28;;;2.42;;
78716;SDS011;68045;50.042;14.432;2023-07-31T17:53:22;5.53;;;2.58;;
78716;SDS011;68045;50.042;14.432;2023-07-31T17:57:23;5.47;;;2.70;;
78716;SDS011;68045;50.042;14.432;2023-07-31T18:01:25;4.55;;;2.65;;
78716;SDS011;68045;50.042;14.432;2023-07-31T18:09:27;6.55;;;2.53;;
78716;SDS011;68045;50.042;14.432;2023-07-31T18:13:28;6.55;;;3.00;;
78716;SDS011;68045;50.042;14.432;2023-07-31T18:17:29;7.18;;;3.10;;
78716;SDS011;68045;50.042;14.432;2023-07-31T18:21:30;5.43;;;3.17;;
78716;SDS011;68045;50.042;14.432;2023-07-31T18:25:34;7.03;;;3.47;;
78716;SDS011;68045;50.042;14.432;2023-07-31T18:29:35;5.03;;;2.67;;
78716;SDS011;68045;50.042;14.432;2023-07-31T18:33:36;8.23;;;3.03;;
78716;SDS011;68045;50.042;14.432;2023-07-31T18:37:37;12.40;;;3.53;;
78716;SDS011;68045;50.042;14.432;2023-07-31T18:41:38;8.27;;;3.47;;
78716;SDS011;68045;50.042;14.432;2023-07-31T18:49:41;7.47;;;4.18;;
78716;SDS011;68045;50.042;14.432;2023-07-31T18:53:42;5.90;;;3.25;;
78716;SDS011;68045;50.042;14.432;2023-07-31T18:57:43;8.98;;;3.40;;
78716;SDS011;68045;50.042;14.432;2023-07-31T19:01:46;6.45;;;3.50;;
78716;SDS011;68045;50.042;14.432;2023-07-31T19:05:46;5.82;;;3.38;;
78716;SDS011;68045;50.042;14.432;2023-07-31T19:09:47;7.82;;;3.80;;
78716;SDS011;68045;50.042;14.432;2023-07-31T19:13:48;6.85;;;3.55;;
78716;SDS011;68045;50.042;14.432;2023-07-31T19:17:49;6.57;;;3.72;;
78716;SDS011;68045;50.042;14.432;2023-07-31T19:21:50;6.72;;;3.55;;
78716;SDS011;68045;50.042;14.432;2023-07-31T19:25:51;12.40;;;3.53;;
78716;SDS011;68045;50.042;14.432;2023-07-31T19:29:52;5.82;;;3.58;;
78716;SDS011;68045;50.042;14.432;2023-07-31T19:33:52;6.55;;;3.42;;
78716;SDS011;68045;50.042;14.432;2023-07-31T19:37:53;6.15;;;3.65;;
78716;SDS011;68045;50.042;14.432;2023-07-31T19:41:54;8.60;;;3.72;;
78716;SDS011;68045;50.042;14.432;2023-07-31T19:45:55;7.60;;;3.97;;
78716;SDS011;68045;50.042;14.432;2023-07-31T19:49:57;7.25;;;3.67;;
78716;SDS011;68045;50.042;14.432;2023-07-31T19:53:58;5.47;;;3.10;;
78716;SDS011;68045;50.042;14.432;2023-07-31T19:57:59;9.00;;;3.63;;
78716;SDS011;68045;50.042;14.432;2023-07-31T20:02:00;6.53;;;3.53;;
78716;SDS011;68045;50.042;14.432;2023-07-31T20:06:02;5.22;;;3.17;;
78716;SDS011;68045;50.042;14.432;2023-07-31T20:10:03;7.00;;;3.53;;
78716;SDS011;68045;50.042;14.432;2023-07-31T20:14:04;7.95;;;4.18;;
78716;SDS011;68045;50.042;14.432;2023-07-31T20:18:06;6.60;;;3.60;;
78716;SDS011;68045;50.042;14.432;2023-07-31T20:22:07;8.52;;;3.80;;
78716;SDS011;68045;50.042;14.432;2023-07-31T20:26:09;6.03;;;3.60;;
78716;SDS011;68045;50.042;14.432;2023-07-31T20:30:10;6.88;;;3.42;;
78716;SDS011;68045;50.042;14.432;2023-07-31T20:34:11;8.10;;;3.60;;
78716;SDS011;68045;50.042;14.432;2023-07-31T20:38:12;7.00;;;3.67;;
78716;SDS011;68045;50.042;14.432;2023-07-31T20:42:13;7.22;;;3.67;;
78716;SDS011;68045;50.042;14.432;2023-07-31T20:46:16;7.20;;;3.83;;
78716;SDS011;68045;50.042;14.432;2023-07-31T20:50:16;6.82;;;3.92;;
78716;SDS011;68045;50.042;14.432;2023-07-31T20:54:17;8.25;;;3.78;;
78716;SDS011;68045;50.042;14.432;2023-07-31T20:58:18;8.45;;;4.20;;
78716;SDS011;68045;50.042;14.432;2023-07-31T21:02:19;8.23;;;3.83;;
78716;SDS011;68045;50.042;14.432;2023-07-31T21:06:20;8.25;;;3.95;;
78716;SDS011;68045;50.042;14.432;2023-07-31T21:10:22;8.32;;;3.85;;
78716;SDS011;68045;50.042;14.432;2023-07-31T21:14:23;7.70;;;3.60;;
78716;SDS011;68045;50.042;14.432;2023-07-31T21:18:24;9.63;;;3.80;;
78716;SDS011;68045;50.042;14.432;2023-07-31T21:22:25;5.40;;;3.20;;
78716;SDS011;68045;50.042;14.432;2023-07-31T21:26:26;6.40;;;3.00;;
78716;SDS011;68045;50.042;14.432;2023-07-31T21:30:30;7.35;;;3.35;;
78716;SDS011;68045;50.042;14.432;2023-07-31T21:34:31;5.55;;;3.00;;
78716;SDS011;68045;50.042;14.432;2023-07-31T21:38:32;5.45;;;3.45;;
78716;SDS011;68045;50.042;14.432;2023-07-31T21:42:33;6.28;;;3.15;;
78716;SDS011;68045;50.042;14.432;2023-07-31T21:46:33;7.07;;;3.42;;
78716;SDS011;68045;50.042;14.432;2023-07-31T21:50:34;7.07;;;3.10;;
78716;SDS011;68045;50.042;14.432;2023-07-31T21:54:35;5.75;;;3.20;;
78716;SDS011;68045;50.042;14.432;2023-07-31T21:58:36;6.10;;;3.55;;
78716;SDS011;68045;50.042;14.432;2023-07-31T22:02:37;5.22;;;3.30;;
78716;SDS011;68045;50.042;14.432;2023-07-31T22:06:38;6.38;;;2.67;;
78716;SDS011;68045;50.042;14.432;2023-07-31T22:10:39;7.50;;;3.35;;
78716;SDS011;68045;50.042;14.432;2023-07-31T22:14:40;7.40;;;3.22;;
78716;SDS011;68045;50.042;14.432;2023-07-31T22:18:41;5.43;;;2.97;;
78716;SDS011;68045;50.042;14.432;2023-07-31T22:22:42;5.30;;;3.28;;
78716;SDS011;68045;50.042;14.432;2023-07-31T22:26:43;10.45;;;3.72;;
78716;SDS011;68045;50.042;14.432;2023-07-31T22:30:44;7.85;;;3.10;;
78716;SDS011;68045;50.042;14.432;2023-07-31T22:34:45;5.50;;;3.10;;
78716;SDS011;68045;50.042;14.432;2023-07-31T22:38:46;4.88;;;3.13;;
78716;SDS011;68045;50.042;14.432;2023-07-31T22:42:47;8.90;;;3.72;;
78716;SDS011;68045;50.042;14.432;2023-07-31T22:46:48;8.50;;;3.38;;
78716;SDS011;68045;50.042;14.432;2023-07-31T22:50:49;6.72;;;3.45;;
78716;SDS011;68045;50.042;14.432;2023-07-31T22:54:49;8.68;;;3.47;;
78716;SDS011;68045;50.042;14.432;2023-07-31T22:58:51;8.98;;;4.07;;
78716;SDS011;68045;50.042;14.432;2023-07-31T23:02:52;6.53;;;3.35;;
78716;SDS011;68045;50.042;14.432;2023-07-31T23:06:53;6.43;;;2.97;;
78716;SDS011;68045;50.042;14.432;2023-07-31T23:10:55;5.57;;;3.47;;
78716;SDS011;68045;50.042;14.432;2023-07-31T23:14:56;7.13;;;3.72;;
78716;SDS011;68045;50.042;14.432;2023-07-31T23:18:57;7.50;;;3.50;;
78716;SDS011;68045;50.042;14.432;2023-07-31T23:22:57;5.93;;;3.20;;
78716;SDS011;68045;50.042;14.432;2023-07-31T23:26:58;6.80;;;3.53;;
78716;SDS011;68045;50.042;14.432;2023-07-31T23:31:03;4.80;;;2.90;;
78716;SDS011;68045;50.042;14.432;2023-07-31T23:35:04;6.90;;;3.50;;
78716;SDS011;68045;50.042;14.432;2023-07-31T23:39:05;6.13;;;3.33;;
78716;SDS011;68045;50.042;14.432;2023-07-31T23:43:06;9.63;;;3.55;;
78716;SDS011;68045;50.042;14.432;2023-07-31T23:47:07;6.75;;;3.40;;
78716;SDS011;68045;50.042;14.432;2023-07-31T23:51:08;7.68;;;3.25;;
78716;SDS011;68045;50.042;14.432;2023-07-31T23:55:09;6.15;;;3.97;;
78716;SDS011;68045;50.042;14.432;2023-07-31T23:59:11;6.88;;;3.70;;
